Time;durP1;ratioP1;P1;durP2;ratioP2;P2;SDS_P1;SDS_P2;PMS_P1;PMS_P2;Temp;Humidity;BMP_temperature;BMP_pressure;BME280_temperature;BME280_humidity;BME280_pressure;Samples;Min_cycle;Max_cycle;Signal;HPM_P1;HPM_P2
2024/01/10 00:01:12;;;;;;;20.30;8.88;;;;;;;;;;4971750;28;20043;-83
2024/01/10 00:03:37;;;;;;;32.00;10.23;;;;;;;;;;4994843;28;20060;-83
2024/01/10 00:06:03;;;;;;;39.10;10.57;;;;;;;;;;4994740;28;20080;-83
2024/01/10 00:08:28;;;;;;;25.73;9.30;;;;;;;;;;4980822;28;20097;-83
2024/01/10 00:10:54;;;;;;;30.50;13.15;;;;;;;;;;4976502;28;20073;-83
2024/01/10 00:13:21;;;;;;;32.65;11.18;;;;;;;;;;4990523;28;20037;-82
2024/01/10 00:15:46;;;;;;;29.80;11.55;;;;;;;;;;4990067;28;20053;-84
2024/01/10 00:18:11;;;;;;;28.85;10.98;;;;;;;;;;4991814;28;20034;-83
2024/01/10 00:20:36;;;;;;;30.38;11.85;;;;;;;;;;4988588;28;20034;-83
2024/01/10 00:23:02;;;;;;;35.83;14.07;;;;;;;;;;4972899;28;20118;-83
2024/01/10 00:25:27;;;;;;;25.65;10.30;;;;;;;;;;4965347;28;20463;-84
2024/01/10 00:27:52;;;;;;;36.10;12.88;;;;;;;;;;4995497;28;20491;-83
2024/01/10 00:30:18;;;;;;;29.75;12.75;;;;;;;;;;4978875;28;20056;-83
2024/01/10 00:32:43;;;;;;;39.53;14.82;;;;;;;;;;4995679;28;20029;-84
2024/01/10 00:35:08;;;;;;;31.08;14.77;;;;;;;;;;4979555;28;20045;-84
2024/01/10 00:37:34;;;;;;;34.72;14.15;;;;;;;;;;4974449;28;20043;-84
2024/01/10 00:39:59;;;;;;;35.50;13.85;;;;;;;;;;4973934;28;20030;-83
2024/01/10 00:42:24;;;;;;;32.88;13.27;;;;;;;;;;4984344;28;20113;-85
2024/01/10 00:44:49;;;;;;;38.78;15.55;;;;;;;;;;4991619;28;20045;-84
2024/01/10 00:47:15;;;;;;;38.78;12.10;;;;;;;;;;4997705;28;20041;-82
2024/01/10 00:49:40;;;;;;;30.55;12.32;;;;;;;;;;4985073;28;20050;-83
2024/01/10 00:52:05;;;;;;;23.98;9.25;;;;;;;;;;4980673;28;20501;-83
2024/01/10 00:54:31;;;;;;;31.35;12.77;;;;;;;;;;4980857;28;20050;-83
2024/01/10 00:56:56;;;;;;;28.25;11.40;;;;;;;;;;4995959;28;20034;-83
2024/01/10 00:59:21;;;;;;;37.20;13.43;;;;;;;;;;4982796;28;20042;-82
2024/01/10 01:01:47;;;;;;;33.28;12.60;;;;;;;;;;4978969;28;20031;-84
2024/01/10 01:04:12;;;;;;;42.38;13.48;;;;;;;;;;4988065;28;20042;-83
2024/01/10 01:06:37;;;;;;;33.65;13.02;;;;;;;;;;4990206;28;20035;-84
2024/01/10 01:09:03;;;;;;;29.98;12.85;;;;;;;;;;4991837;28;20036;-84
2024/01/10 01:11:28;;;;;;;36.90;13.23;;;;;;;;;;4994149;28;20027;-83
2024/01/10 01:13:53;;;;;;;28.02;12.15;;;;;;;;;;4982568;28;20135;-83
2024/01/10 01:16:19;;;;;;;30.15;9.68;;;;;;;;;;4989024;28;20042;-83
2024/01/10 01:18:45;;;;;;;25.73;10.90;;;;;;;;;;4982073;28;20069;-84
2024/01/10 01:21:13;;;;;;;39.95;13.82;;;;;;;;;;4971150;28;20114;-83
2024/01/10 01:23:39;;;;;;;32.80;11.25;;;;;;;;;;4986720;28;20034;-83
2024/01/10 01:26:04;;;;;;;28.85;11.50;;;;;;;;;;4985113;28;20049;-83
2024/01/10 01:28:29;;;;;;;31.70;11.70;;;;;;;;;;4987482;28;20034;-82
2024/01/10 01:30:55;;;;;;;33.03;13.25;;;;;;;;;;4959247;28;20030;-83
2024/01/10 01:33:20;;;;;;;34.80;12.25;;;;;;;;;;4995098;28;20465;-83
2024/01/10 01:35:46;;;;;;;36.28;14.38;;;;;;;;;;4985696;28;20034;-83
2024/01/10 01:38:11;;;;;;;39.42;13.85;;;;;;;;;;4980722;28;20031;-84
2024/01/10 01:40:36;;;;;;;39.00;14.10;;;;;;;;;;4992103;28;20081;-83
2024/01/10 01:43:19;;;;;;;30.42;12.18;;;;;;;;;;4985732;28;20044;-83
2024/01/10 01:45:44;;;;;;;29.48;12.30;;;;;;;;;;4961234;28;20035;-83
2024/01/10 01:48:10;;;;;;;41.40;13.07;;;;;;;;;;4989816;28;20061;-82
2024/01/10 01:50:35;;;;;;;32.00;13.00;;;;;;;;;;4981314;28;20048;-83
2024/01/10 01:53:00;;;;;;;41.58;14.20;;;;;;;;;;4974475;28;20038;-80
2024/01/10 01:55:26;;;;;;;39.85;13.40;;;;;;;;;;4983974;28;20046;-82
2024/01/10 01:57:51;;;;;;;43.15;12.00;;;;;;;;;;4997778;28;20045;-83
2024/01/10 02:00:16;;;;;;;32.47;12.40;;;;;;;;;;4993139;28;20039;-83
2024/01/10 02:02:43;;;;;;;26.73;10.25;;;;;;;;;;4997950;28;20068;-84
2024/01/10 02:05:09;;;;;;;25.45;10.20;;;;;;;;;;4994551;28;20034;-84
2024/01/10 02:07:34;;;;;;;34.53;9.77;;;;;;;;;;4990707;28;20030;-82
2024/01/10 02:10:00;;;;;;;26.85;9.13;;;;;;;;;;4965771;28;20027;-84
2024/01/10 02:12:25;;;;;;;31.38;11.77;;;;;;;;;;4998041;28;20042;-82
2024/01/10 02:14:51;;;;;;;41.40;12.23;;;;;;;;;;4990314;28;20515;-82
2024/01/10 02:17:17;;;;;;;27.73;12.00;;;;;;;;;;4970135;28;20039;-80
2024/01/10 02:19:42;;;;;;;25.23;10.27;;;;;;;;;;4992580;28;20041;-83
2024/01/10 02:22:07;;;;;;;31.25;11.07;;;;;;;;;;4985255;28;20034;-81
2024/01/10 02:24:33;;;;;;;28.25;10.75;;;;;;;;;;4990762;28;20042;-83
2024/01/10 02:26:58;;;;;;;35.78;13.73;;;;;;;;;;4994696;28;20046;-82
2024/01/10 02:29:24;;;;;;;51.40;16.92;;;;;;;;;;4999511;28;20035;-82
2024/01/10 02:31:49;;;;;;;32.83;11.23;;;;;;;;;;4987809;28;20089;-83
2024/01/10 02:34:14;;;;;;;42.53;13.90;;;;;;;;;;4983926;28;20066;-82
2024/01/10 02:36:40;;;;;;;28.85;9.98;;;;;;;;;;4976013;28;20086;-82
2024/01/10 02:39:05;;;;;;;26.50;9.77;;;;;;;;;;4993878;28;20043;-83
2024/01/10 02:41:30;;;;;;;29.05;11.82;;;;;;;;;;4979865;28;20038;-81
2024/01/10 02:43:58;;;;;;;32.83;11.98;;;;;;;;;;4981272;28;20038;-83
2024/01/10 02:46:27;;;;;;;44.00;13.35;;;;;;;;;;4981984;28;20035;-82
2024/01/10 02:48:53;;;;;;;26.60;11.10;;;;;;;;;;4996692;28;20041;-82
2024/01/10 02:51:18;;;;;;;45.78;12.88;;;;;;;;;;4993192;28;20050;-82
2024/01/10 02:53:43;;;;;;;38.70;14.43;;;;;;;;;;4993265;28;20046;-83
2024/01/10 02:56:09;;;;;;;46.75;15.30;;;;;;;;;;4993831;28;20122;-82
2024/01/10 02:58:34;;;;;;;25.08;10.05;;;;;;;;;;4983052;28;20049;-82
2024/01/10 03:01:01;;;;;;;42.10;14.43;;;;;;;;;;4988156;28;20035;-81
2024/01/10 03:03:26;;;;;;;47.78;16.95;;;;;;;;;;4967675;28;20039;-83
2024/01/10 03:05:51;;;;;;;59.65;19.13;;;;;;;;;;4993044;28;20563;-83
2024/01/10 03:08:17;;;;;;;28.27;11.77;;;;;;;;;;4983162;28;20038;-80
2024/01/10 03:10:42;;;;;;;48.28;16.60;;;;;;;;;;4959812;28;20450;-82
2024/01/10 03:13:07;;;;;;;29.92;9.85;;;;;;;;;;4977291;28;20081;-83
2024/01/10 03:15:32;;;;;;;56.15;18.65;;;;;;;;;;4973057;28;20043;-82
2024/01/10 03:17:58;;;;;;;36.65;11.15;;;;;;;;;;4967197;28;20035;-82
2024/01/10 03:20:23;;;;;;;36.75;12.85;;;;;;;;;;4971867;28;20054;-82
2024/01/10 03:22:48;;;;;;;48.65;18.15;;;;;;;;;;4992820;28;20110;-82
2024/01/10 03:25:14;;;;;;;41.05;14.63;;;;;;;;;;4976359;28;20050;-83
2024/01/10 03:27:39;;;;;;;28.25;9.15;;;;;;;;;;4974598;28;20038;-82
2024/01/10 03:30:05;;;;;;;33.78;13.00;;;;;;;;;;4977669;28;20046;-82
2024/01/10 03:32:31;;;;;;;35.25;12.90;;;;;;;;;;4991574;28;20098;-82
2024/01/10 03:34:57;;;;;;;34.45;12.13;;;;;;;;;;4992180;28;20464;-82
2024/01/10 03:37:22;;;;;;;20.67;8.40;;;;;;;;;;4994477;28;20034;-82
2024/01/10 03:39:47;;;;;;;33.83;12.13;;;;;;;;;;4970742;28;20554;-83
2024/01/10 03:42:13;;;;;;;26.38;10.65;;;;;;;;;;4989125;28;20100;-82
2024/01/10 03:44:38;;;;;;;36.63;12.73;;;;;;;;;;4961847;28;20034;-83
2024/01/10 03:47:04;;;;;;;27.67;8.30;;;;;;;;;;4980931;28;20593;-80
2024/01/10 03:49:29;;;;;;;30.95;12.13;;;;;;;;;;4988015;28;20034;-83
2024/01/10 03:51:54;;;;;;;25.95;10.55;;;;;;;;;;4972020;28;20038;-82
2024/01/10 03:54:20;;;;;;;33.30;10.65;;;;;;;;;;4991310;28;20114;-83
2024/01/10 03:56:45;;;;;;;33.53;10.70;;;;;;;;;;4951638;28;20049;-82
2024/01/10 03:59:10;;;;;;;39.75;13.82;;;;;;;;;;4987846;28;20058;-81
2024/01/10 04:01:39;;;;;;;28.83;12.13;;;;;;;;;;4964975;28;20090;-82
2024/01/10 04:04:04;;;;;;;31.65;11.73;;;;;;;;;;4991960;28;20059;-83
2024/01/10 04:06:30;;;;;;;14.05;6.93;;;;;;;;;;4969483;28;20495;-84
2024/01/10 04:08:55;;;;;;;33.10;11.32;;;;;;;;;;4962646;28;20506;-83
2024/01/10 04:11:20;;;;;;;38.92;12.23;;;;;;;;;;4977545;28;20117;-81
2024/01/10 04:13:46;;;;;;;41.00;12.93;;;;;;;;;;4972048;28;20035;-82
2024/01/10 04:16:11;;;;;;;45.83;12.23;;;;;;;;;;4983348;28;20039;-82
2024/01/10 04:18:37;;;;;;;41.85;13.18;;;;;;;;;;4972600;28;20120;-83
2024/01/10 04:21:02;;;;;;;32.17;10.57;;;;;;;;;;4999297;28;20487;-81
2024/01/10 04:23:28;;;;;;;46.85;14.95;;;;;;;;;;4992360;28;20523;-82
2024/01/10 04:25:53;;;;;;;34.78;12.15;;;;;;;;;;4974054;28;20081;-81
2024/01/10 04:28:19;;;;;;;44.55;15.75;;;;;;;;;;4986099;28;20035;-81
2024/01/10 04:30:44;;;;;;;30.67;11.52;;;;;;;;;;4983595;28;20034;-82
2024/01/10 04:33:09;;;;;;;33.25;13.25;;;;;;;;;;4986462;28;20045;-83
2024/01/10 04:35:35;;;;;;;28.85;10.20;;;;;;;;;;4990456;28;20050;-84
2024/01/10 04:38:00;;;;;;;39.13;13.75;;;;;;;;;;4992303;28;20373;-83
2024/01/10 04:40:25;;;;;;;28.20;10.52;;;;;;;;;;4970883;28;20077;-82
2024/01/10 04:42:51;;;;;;;32.90;11.93;;;;;;;;;;4988221;28;20415;-83
2024/01/10 04:45:16;;;;;;;33.05;12.20;;;;;;;;;;4965700;28;20030;-81
2024/01/10 04:47:42;;;;;;;29.00;10.82;;;;;;;;;;4970420;28;20054;-83
2024/01/10 04:50:07;;;;;;;58.65;16.70;;;;;;;;;;4989585;28;20046;-81
2024/01/10 04:52:33;;;;;;;36.78;12.30;;;;;;;;;;4998036;28;20046;-82
2024/01/10 04:54:58;;;;;;;33.60;12.65;;;;;;;;;;4969962;28;20034;-84
2024/01/10 04:57:24;;;;;;;39.78;12.60;;;;;;;;;;4998150;28;20123;-83
2024/01/10 04:59:49;;;;;;;36.00;11.20;;;;;;;;;;4986925;28;20038;-84
2024/01/10 05:02:15;;;;;;;32.50;12.27;;;;;;;;;;4986600;28;20058;-82
2024/01/10 05:04:40;;;;;;;37.17;11.82;;;;;;;;;;4990826;28;20038;-83
2024/01/10 05:07:05;;;;;;;61.28;19.08;;;;;;;;;;4972960;28;20404;-83
2024/01/10 05:09:30;;;;;;;26.42;10.38;;;;;;;;;;4966958;28;20039;-83
2024/01/10 05:11:56;;;;;;;38.33;12.70;;;;;;;;;;4984739;28;20074;-84
2024/01/10 05:14:21;;;;;;;41.00;12.05;;;;;;;;;;4973375;28;20050;-83
2024/01/10 05:16:50;;;;;;;29.33;12.23;;;;;;;;;;4970267;28;20039;-84
2024/01/10 05:19:15;;;;;;;27.40;11.43;;;;;;;;;;4989143;28;20050;-84
2024/01/10 05:21:40;;;;;;;41.05;12.80;;;;;;;;;;4970622;28;20635;-83
2024/01/10 05:24:06;;;;;;;29.75;8.52;;;;;;;;;;4987705;28;20046;-82
2024/01/10 05:26:31;;;;;;;34.85;11.90;;;;;;;;;;4991941;28;20054;-82
2024/01/10 05:28:57;;;;;;;26.10;10.98;;;;;;;;;;4951266;28;20047;-84
2024/01/10 05:31:22;;;;;;;22.17;9.95;;;;;;;;;;4987204;28;20046;-82
2024/01/10 05:33:48;;;;;;;35.63;11.18;;;;;;;;;;4974128;28;20039;-83
2024/01/10 05:36:13;;;;;;;33.95;10.30;;;;;;;;;;4967968;28;20069;-83
2024/01/10 05:38:40;;;;;;;41.97;13.57;;;;;;;;;;4968555;28;20093;-83
2024/01/10 05:41:05;;;;;;;27.67;9.20;;;;;;;;;;4984158;28;20122;-83
2024/01/10 05:43:31;;;;;;;22.95;8.13;;;;;;;;;;4987289;28;20062;-82
2024/01/10 05:45:57;;;;;;;21.23;8.27;;;;;;;;;;4974346;28;20045;-82
2024/01/10 05:48:22;;;;;;;27.05;10.73;;;;;;;;;;4987684;28;20039;-82
2024/01/10 05:50:47;;;;;;;24.40;11.35;;;;;;;;;;4969471;28;20034;-83
2024/01/10 05:53:16;;;;;;;30.13;8.88;;;;;;;;;;4974305;28;20042;-82
2024/01/10 05:55:42;;;;;;;28.27;11.38;;;;;;;;;;4982710;28;20093;-83
2024/01/10 05:58:09;;;;;;;29.08;8.57;;;;;;;;;;4988595;28;20056;-83
2024/01/10 06:00:34;;;;;;;29.98;10.45;;;;;;;;;;4971286;28;20101;-82
2024/01/10 06:03:00;;;;;;;31.10;11.93;;;;;;;;;;4987322;28;20034;-83
2024/01/10 06:05:25;;;;;;;29.02;11.00;;;;;;;;;;4989237;28;20038;-83
2024/01/10 06:07:50;;;;;;;33.13;9.55;;;;;;;;;;4987877;28;20034;-83
2024/01/10 06:10:16;;;;;;;34.83;12.77;;;;;;;;;;4970520;28;20122;-83
2024/01/10 06:12:42;;;;;;;41.38;10.73;;;;;;;;;;4974099;28;20126;-84
2024/01/10 06:15:08;;;;;;;34.10;11.98;;;;;;;;;;4967583;28;20054;-82
2024/01/10 06:17:33;;;;;;;30.58;10.30;;;;;;;;;;4965789;28;20054;-83
2024/01/10 06:20:03;;;;;;;26.42;10.30;;;;;;;;;;4982687;28;20054;-83
2024/01/10 06:22:28;;;;;;;31.35;12.52;;;;;;;;;;4975813;28;20107;-83
2024/01/10 06:24:53;;;;;;;44.65;16.95;;;;;;;;;;4966440;28;20065;-83
2024/01/10 06:27:19;;;;;;;31.70;11.82;;;;;;;;;;4983925;28;20483;-80
2024/01/10 06:29:44;;;;;;;27.30;10.02;;;;;;;;;;4979706;28;20035;-81
2024/01/10 06:32:14;;;;;;;32.08;11.73;;;;;;;;;;4987782;28;20030;-83
2024/01/10 06:34:40;;;;;;;26.25;8.95;;;;;;;;;;4973441;28;20392;-84
2024/01/10 06:37:07;;;;;;;32.88;12.20;;;;;;;;;;4986221;28;20039;-82
2024/01/10 06:39:32;;;;;;;25.00;10.32;;;;;;;;;;4992270;28;20042;-83
2024/01/10 06:41:58;;;;;;;28.73;10.30;;;;;;;;;;4989081;28;20037;-84
2024/01/10 06:44:23;;;;;;;30.15;11.45;;;;;;;;;;4987564;28;20133;-84
2024/01/10 06:46:48;;;;;;;33.33;11.15;;;;;;;;;;4991552;28;20039;-84
2024/01/10 06:49:14;;;;;;;26.02;9.40;;;;;;;;;;4974116;28;20058;-83
2024/01/10 06:51:39;;;;;;;27.05;10.63;;;;;;;;;;4992939;28;20038;-83
2024/01/10 06:54:05;;;;;;;21.92;9.18;;;;;;;;;;4995744;28;20296;-84
2024/01/10 06:56:31;;;;;;;20.30;10.10;;;;;;;;;;4969475;28;20027;-83
2024/01/10 06:58:57;;;;;;;21.67;9.07;;;;;;;;;;4964769;28;20039;-82
2024/01/10 07:01:22;;;;;;;39.25;12.23;;;;;;;;;;4974390;28;20048;-84
2024/01/10 07:03:48;;;;;;;24.70;10.73;;;;;;;;;;4990807;28;20085;-83
2024/01/10 07:06:14;;;;;;;34.28;10.23;;;;;;;;;;4996209;28;20125;-83
2024/01/10 07:08:40;;;;;;;39.10;12.23;;;;;;;;;;4993544;28;20049;-84
2024/01/10 07:11:05;;;;;;;26.63;10.27;;;;;;;;;;4970687;28;20070;-81
2024/01/10 07:13:31;;;;;;;22.88;9.32;;;;;;;;;;4972496;28;20123;-82
2024/01/10 07:15:57;;;;;;;31.92;12.27;;;;;;;;;;4990901;28;20078;-83
2024/01/10 07:18:22;;;;;;;32.88;10.43;;;;;;;;;;4985316;28;21267;-83
2024/01/10 07:20:47;;;;;;;32.28;11.88;;;;;;;;;;4968969;28;20455;-84
2024/01/10 07:23:13;;;;;;;29.55;12.48;;;;;;;;;;4949693;28;20627;-84
2024/01/10 07:25:38;;;;;;;26.40;9.65;;;;;;;;;;4971764;28;20042;-84
2024/01/10 07:28:04;;;;;;;50.13;11.73;;;;;;;;;;4982649;28;20062;-85
2024/01/10 07:30:32;;;;;;;32.38;10.45;;;;;;;;;;4982266;28;20038;-83
2024/01/10 07:32:58;;;;;;;35.17;13.35;;;;;;;;;;4970466;28;20042;-83
2024/01/10 07:35:23;;;;;;;28.48;11.80;;;;;;;;;;4962213;28;20038;-83
2024/01/10 07:37:48;;;;;;;30.55;11.20;;;;;;;;;;4970118;28;20185;-83
2024/01/10 07:40:14;;;;;;;32.65;13.18;;;;;;;;;;4984664;28;20049;-84
2024/01/10 07:42:39;;;;;;;44.15;15.57;;;;;;;;;;4983579;28;20133;-82
2024/01/10 07:45:05;;;;;;;37.00;15.13;;;;;;;;;;4971971;28;20121;-82
2024/01/10 07:47:31;;;;;;;32.38;11.43;;;;;;;;;;4984425;28;20038;-83
2024/01/10 07:49:57;;;;;;;34.97;13.48;;;;;;;;;;4970626;28;20053;-82
2024/01/10 07:52:22;;;;;;;41.03;12.50;;;;;;;;;;4976563;28;20050;-82
2024/01/10 07:54:48;;;;;;;36.13;13.23;;;;;;;;;;4968698;28;20038;-82
2024/01/10 07:57:13;;;;;;;29.67;11.07;;;;;;;;;;4982545;28;20073;-82
2024/01/10 07:59:38;;;;;;;680.13;45.10;;;;;;;;;;4975483;28;20038;-82
2024/01/10 08:02:04;;;;;;;36.10;12.98;;;;;;;;;;4947936;28;20065;-82
2024/01/10 08:04:29;;;;;;;98.38;15.00;;;;;;;;;;4985821;28;20046;-81
2024/01/10 08:06:55;;;;;;;64.40;16.15;;;;;;;;;;4970768;28;20031;-83
2024/01/10 08:09:23;;;;;;;33.53;11.52;;;;;;;;;;4987270;28;20069;-83
2024/01/10 08:11:48;;;;;;;40.03;11.93;;;;;;;;;;4976073;28;20404;-82
2024/01/10 08:14:15;;;;;;;49.05;14.77;;;;;;;;;;4988820;28;20105;-82
2024/01/10 08:16:40;;;;;;;38.95;13.77;;;;;;;;;;4973643;28;20118;-83
2024/01/10 08:19:06;;;;;;;45.17;15.13;;;;;;;;;;4972394;28;20046;-82
2024/01/10 08:21:31;;;;;;;34.67;12.95;;;;;;;;;;4985706;28;20045;-82
2024/01/10 08:23:57;;;;;;;122.30;15.88;;;;;;;;;;4986482;28;20038;-84
2024/01/10 08:26:23;;;;;;;132.35;15.20;;;;;;;;;;4985982;28;20043;-83
2024/01/10 08:28:48;;;;;;;31.92;12.77;;;;;;;;;;4982593;28;20031;-83
2024/01/10 08:31:16;;;;;;;34.50;13.75;;;;;;;;;;4987236;28;20070;-80
2024/01/10 08:33:42;;;;;;;83.80;14.15;;;;;;;;;;4965932;28;20093;-84
2024/01/10 08:36:09;;;;;;;121.93;15.23;;;;;;;;;;4969391;28;20039;-83
2024/01/10 08:38:35;;;;;;;41.92;13.57;;;;;;;;;;4987930;28;20042;-83
2024/01/10 08:41:00;;;;;;;33.90;13.68;;;;;;;;;;4968784;28;20057;-84
2024/01/10 08:43:26;;;;;;;116.97;14.88;;;;;;;;;;4970938;28;20126;-83
2024/01/10 08:45:51;;;;;;;126.70;16.80;;;;;;;;;;4988129;28;20035;-81
2024/01/10 08:48:16;;;;;;;27.73;12.38;;;;;;;;;;4986089;28;20031;-84
2024/01/10 08:50:43;;;;;;;145.45;15.80;;;;;;;;;;4963660;28;20038;-84
2024/01/10 08:53:10;;;;;;;31.90;13.20;;;;;;;;;;4978969;28;20673;-82
2024/01/10 08:55:37;;;;;;;35.63;13.07;;;;;;;;;;4990366;28;20038;-83
2024/01/10 08:58:02;;;;;;;29.08;12.50;;;;;;;;;;4975057;28;20046;-82
2024/01/10 09:00:28;;;;;;;35.45;14.70;;;;;;;;;;4984788;28;21096;-81
2024/01/10 09:02:54;;;;;;;30.58;12.55;;;;;;;;;;4981305;28;20104;-82
2024/01/10 09:05:21;;;;;;;34.08;13.43;;;;;;;;;;4977651;28;20099;-82
2024/01/10 09:07:47;;;;;;;37.67;14.60;;;;;;;;;;4982682;28;20046;-83
2024/01/10 09:10:12;;;;;;;34.35;14.48;;;;;;;;;;4981516;28;20411;-82
2024/01/10 09:12:38;;;;;;;40.03;13.27;;;;;;;;;;4962527;28;20100;-84
2024/01/10 09:15:03;;;;;;;32.83;13.50;;;;;;;;;;4979671;28;20118;-82
2024/01/10 09:17:29;;;;;;;42.30;15.45;;;;;;;;;;4979867;28;20062;-79
2024/01/10 09:19:54;;;;;;;39.42;14.80;;;;;;;;;;4978875;28;20112;-81
2024/01/10 09:22:19;;;;;;;30.98;12.52;;;;;;;;;;4985642;28;20467;-79
2024/01/10 09:24:45;;;;;;;25.17;11.65;;;;;;;;;;4983612;28;20143;-80
2024/01/10 09:27:10;;;;;;;27.08;11.27;;;;;;;;;;4992142;28;20121;-80
2024/01/10 09:29:36;;;;;;;30.05;11.15;;;;;;;;;;4975934;28;20122;-80
2024/01/10 09:32:01;;;;;;;28.77;12.35;;;;;;;;;;4992620;28;20068;-81
2024/01/10 09:34:26;;;;;;;26.95;11.73;;;;;;;;;;4984619;28;20165;-79
2024/01/10 09:36:52;;;;;;;26.17;11.30;;;;;;;;;;4987551;28;20030;-80
2024/01/10 09:39:18;;;;;;;29.13;12.60;;;;;;;;;;4991207;28;20038;-80
2024/01/10 09:41:50;;;;;;;21.75;10.43;;;;;;;;;;4977776;28;20035;-80
2024/01/10 09:44:17;;;;;;;26.92;10.82;;;;;;;;;;4985086;28;20499;-78
2024/01/10 09:46:47;;;;;;;28.02;11.38;;;;;;;;;;4986688;28;20038;-79
2024/01/10 09:49:13;;;;;;;26.73;11.07;;;;;;;;;;4984950;28;20053;-81
2024/01/10 09:51:38;;;;;;;32.10;12.25;;;;;;;;;;4975322;28;20039;-80
2024/01/10 09:54:04;;;;;;;26.55;11.65;;;;;;;;;;4980069;28;20070;-83
2024/01/10 09:56:30;;;;;;;28.40;11.32;;;;;;;;;;4971868;28;20045;-80
2024/01/10 09:58:58;;;;;;;24.55;11.63;;;;;;;;;;4987784;28;20523;-81
2024/01/10 10:01:24;;;;;;;27.13;12.57;;;;;;;;;;4985742;28;20047;-80
2024/01/10 10:03:50;;;;;;;32.10;14.43;;;;;;;;;;4984968;28;20035;-79
2024/01/10 10:06:16;;;;;;;30.98;15.13;;;;;;;;;;4977974;28;20050;-80
2024/01/10 10:08:41;;;;;;;39.85;17.73;;;;;;;;;;4980237;28;20031;-79
2024/01/10 10:11:12;;;;;;;37.13;15.05;;;;;;;;;;4975428;28;20073;-80
2024/01/10 10:13:41;;;;;;;31.00;14.18;;;;;;;;;;4978805;28;20122;-80
2024/01/10 10:16:09;;;;;;;36.35;15.80;;;;;;;;;;4985352;28;20389;-80
2024/01/10 10:18:34;;;;;;;37.92;15.32;;;;;;;;;;4989954;28;20074;-80
2024/01/10 10:21:13;;;;;;;36.17;15.52;;;;;;;;;;4981572;28;20034;-80
2024/01/10 10:24:00;;;;;;;38.08;14.82;;;;;;;;;;4976728;28;20039;-81
2024/01/10 10:26:27;;;;;;;51.28;17.65;;;;;;;;;;4976018;28;20106;-81
2024/01/10 10:28:52;;;;;;;39.17;17.17;;;;;;;;;;4976191;28;20077;-79
2024/01/10 10:31:19;;;;;;;44.78;19.00;;;;;;;;;;4984124;28;20051;-79
2024/01/10 10:33:45;;;;;;;42.92;17.42;;;;;;;;;;4984316;28;20038;-80
2024/01/10 10:36:10;;;;;;;40.17;16.05;;;;;;;;;;4972099;28;20034;-82
2024/01/10 10:38:37;;;;;;;46.45;19.20;;;;;;;;;;4991991;28;20101;-81
2024/01/10 10:41:05;;;;;;;38.60;15.88;;;;;;;;;;4965683;28;20148;-81
2024/01/10 10:43:35;;;;;;;37.58;13.55;;;;;;;;;;4983232;28;20046;-80
2024/01/10 10:46:01;;;;;;;40.53;16.65;;;;;;;;;;4986834;28;20498;-79
2024/01/10 10:48:30;;;;;;;39.33;15.73;;;;;;;;;;4992371;28;20039;-81
2024/01/10 10:51:06;;;;;;;48.08;18.02;;;;;;;;;;4971897;28;20076;-82
2024/01/10 10:53:33;;;;;;;50.60;19.33;;;;;;;;;;4990784;28;20411;-79
2024/01/10 10:56:00;;;;;;;49.38;20.58;;;;;;;;;;4981006;28;20042;-80
2024/01/10 10:58:25;;;;;;;45.40;17.25;;;;;;;;;;4984587;28;20130;-80
2024/01/10 11:00:51;;;;;;;45.17;18.08;;;;;;;;;;4982793;28;20528;-80
2024/01/10 11:03:17;;;;;;;50.45;19.85;;;;;;;;;;4967336;28;20059;-81
2024/01/10 11:05:44;;;;;;;51.17;19.13;;;;;;;;;;4987343;28;20097;-80
2024/01/10 11:08:12;;;;;;;39.25;16.83;;;;;;;;;;4988945;28;20053;-80
2024/01/10 11:10:39;;;;;;;55.80;19.33;;;;;;;;;;4979606;28;20514;-81
2024/01/10 11:13:23;;;;;;;53.15;20.08;;;;;;;;;;4968923;28;20039;-82
2024/01/10 11:16:11;;;;;;;45.42;16.80;;;;;;;;;;4987884;28;20038;-82
2024/01/10 11:19:10;;;;;;;44.67;18.52;;;;;;;;;;4971617;28;20043;-80
2024/01/10 11:22:01;;;;;;;41.03;17.60;;;;;;;;;;4982169;28;20097;-82
2024/01/10 11:24:26;;;;;;;44.70;17.60;;;;;;;;;;4980968;28;20042;-81
2024/01/10 11:27:15;;;;;;;46.03;17.27;;;;;;;;;;4981977;28;20030;-81
2024/01/10 11:29:44;;;;;;;40.00;17.77;;;;;;;;;;4979411;28;20043;-81
2024/01/10 11:32:14;;;;;;;44.17;17.45;;;;;;;;;;4987741;28;20023;-83
2024/01/10 11:34:58;;;;;;;44.40;18.55;;;;;;;;;;4980688;28;20038;-83
2024/01/10 11:37:28;;;;;;;41.42;16.83;;;;;;;;;;4965542;28;20069;-82
2024/01/10 11:39:54;;;;;;;42.33;18.17;;;;;;;;;;4982230;28;20031;-85
2024/01/10 11:42:43;;;;;;;37.65;16.13;;;;;;;;;;4979173;28;20066;-83
2024/01/10 11:45:08;;;;;;;35.15;13.57;;;;;;;;;;4968909;28;20039;-84
2024/01/10 11:47:37;;;;;;;46.42;16.67;;;;;;;;;;4985409;28;20049;-83
2024/01/10 11:50:04;;;;;;;44.50;15.93;;;;;;;;;;4968680;28;20043;-84
2024/01/10 11:52:33;;;;;;;43.97;16.35;;;;;;;;;;4966311;28;20038;-84
2024/01/10 11:54:59;;;;;;;45.90;17.65;;;;;;;;;;4980303;28;20125;-84
2024/01/10 11:57:28;;;;;;;36.40;14.48;;;;;;;;;;4979451;28;20081;-85
2024/01/10 11:59:55;;;;;;;47.65;17.35;;;;;;;;;;4987392;28;20039;-85
2024/01/10 12:02:23;;;;;;;42.63;17.60;;;;;;;;;;4982736;28;20070;-84
2024/01/10 12:04:49;;;;;;;44.97;18.08;;;;;;;;;;4983864;28;20054;-83
2024/01/10 12:07:16;;;;;;;40.63;16.88;;;;;;;;;;4981204;28;20061;-86
2024/01/10 12:09:44;;;;;;;38.95;17.00;;;;;;;;;;4987121;28;20436;-83
2024/01/10 12:12:11;;;;;;;36.65;16.08;;;;;;;;;;4988273;28;20035;-84
2024/01/10 12:14:36;;;;;;;41.28;17.00;;;;;;;;;;4985511;28;20039;-84
2024/01/10 12:17:04;;;;;;;47.53;16.33;;;;;;;;;;4990762;28;20053;-83
2024/01/10 12:19:29;;;;;;;39.33;16.95;;;;;;;;;;4984298;28;20055;-82
2024/01/10 12:21:55;;;;;;;37.08;16.42;;;;;;;;;;4965860;28;20286;-84
2024/01/10 12:24:21;;;;;;;38.00;16.17;;;;;;;;;;4980939;28;20058;-84
2024/01/10 12:26:47;;;;;;;46.08;17.65;;;;;;;;;;4986098;28;20034;-86
2024/01/10 12:29:13;;;;;;;44.63;17.55;;;;;;;;;;4964101;28;20035;-84
2024/01/10 12:31:44;;;;;;;40.75;17.70;;;;;;;;;;4966609;28;20511;-83
2024/01/10 12:34:10;;;;;;;48.35;16.95;;;;;;;;;;4972985;28;20042;-85
2024/01/10 12:36:35;;;;;;;28.70;11.50;;;;;;;;;;4994311;28;20034;-85
2024/01/10 12:39:01;;;;;;;35.95;16.45;;;;;;;;;;4980031;28;20082;-85
2024/01/10 12:41:26;;;;;;;41.00;16.80;;;;;;;;;;4961366;28;20106;-82
2024/01/10 12:43:55;;;;;;;30.80;12.60;;;;;;;;;;4986812;28;20039;-85
2024/01/10 12:46:23;;;;;;;44.03;16.27;;;;;;;;;;4972528;28;20094;-86
2024/01/10 12:49:05;;;;;;;41.33;17.42;;;;;;;;;;4989666;28;20066;-85
2024/01/10 12:51:31;;;;;;;42.35;16.45;;;;;;;;;;4962100;28;20620;-85
2024/01/10 12:54:00;;;;;;;35.13;14.70;;;;;;;;;;4990512;28;20099;-85
2024/01/10 12:56:27;;;;;;;35.22;14.95;;;;;;;;;;4972839;28;20085;-83
2024/01/10 12:58:53;;;;;;;36.60;15.75;;;;;;;;;;4955010;28;20035;-85
2024/01/10 13:01:18;;;;;;;36.88;16.17;;;;;;;;;;4955262;28;20042;-83
2024/01/10 13:03:44;;;;;;;41.88;16.08;;;;;;;;;;4987266;28;20038;-84
2024/01/10 13:06:09;;;;;;;28.95;12.32;;;;;;;;;;4978464;28;20069;-86
2024/01/10 13:08:35;;;;;;;32.13;12.48;;;;;;;;;;4966979;28;20077;-85
2024/01/10 13:11:00;;;;;;;29.42;9.73;;;;;;;;;;4979593;28;20061;-85
2024/01/10 13:13:26;;;;;;;33.97;14.27;;;;;;;;;;4949362;28;20080;-82
2024/01/10 13:15:51;;;;;;;42.85;16.55;;;;;;;;;;4966678;28;20697;-85
2024/01/10 13:18:18;;;;;;;33.25;13.85;;;;;;;;;;4972588;28;20053;-85
2024/01/10 13:20:43;;;;;;;48.05;16.60;;;;;;;;;;4971398;28;20050;-83
2024/01/10 13:23:09;;;;;;;38.42;14.38;;;;;;;;;;4952266;28;20039;-85
2024/01/10 13:25:35;;;;;;;37.22;14.02;;;;;;;;;;4985373;28;20292;-84
2024/01/10 13:28:01;;;;;;;35.60;15.00;;;;;;;;;;4978372;28;20139;-85
2024/01/10 13:30:26;;;;;;;49.38;16.73;;;;;;;;;;4968287;28;20464;-84
2024/01/10 13:32:52;;;;;;;44.88;17.27;;;;;;;;;;4947667;28;20058;-85
2024/01/10 13:35:17;;;;;;;48.53;17.40;;;;;;;;;;4976052;28;20047;-84
2024/01/10 13:37:43;;;;;;;46.60;16.83;;;;;;;;;;4961560;28;20043;-85
2024/01/10 13:40:09;;;;;;;39.13;17.15;;;;;;;;;;4959697;28;20031;-84
2024/01/10 13:42:38;;;;;;;40.53;16.85;;;;;;;;;;4981981;28;20053;-83
2024/01/10 13:45:05;;;;;;;46.33;17.17;;;;;;;;;;4977375;28;20385;-84
2024/01/10 13:47:32;;;;;;;38.95;15.88;;;;;;;;;;4983265;28;20074;-84
2024/01/10 13:49:57;;;;;;;41.97;17.83;;;;;;;;;;4988561;28;20022;-84
2024/01/10 13:52:23;;;;;;;37.22;16.83;;;;;;;;;;4992820;28;21470;-84
2024/01/10 13:54:48;;;;;;;37.72;16.77;;;;;;;;;;4994252;28;20058;-84
2024/01/10 13:57:13;;;;;;;41.40;16.05;;;;;;;;;;4991395;28;20058;-84
2024/01/10 13:59:39;;;;;;;47.47;19.83;;;;;;;;;;4994857;28;20126;-84
2024/01/10 14:02:04;;;;;;;40.78;16.27;;;;;;;;;;4974356;28;20039;-85
2024/01/10 14:04:30;;;;;;;41.58;16.80;;;;;;;;;;4971064;28;20030;-86
2024/01/10 14:06:55;;;;;;;42.22;16.60;;;;;;;;;;4979266;28;20117;-85
2024/01/10 14:09:20;;;;;;;47.90;17.23;;;;;;;;;;4971076;28;20121;-84
2024/01/10 14:11:46;;;;;;;42.47;18.95;;;;;;;;;;4981552;28;20049;-83
2024/01/10 14:14:11;;;;;;;64.20;19.20;;;;;;;;;;4976355;28;20031;-85